Time;durP1;ratioP1;P1;durP2;ratioP2;P2;SDS_P1;SDS_P2;PMS_P1;PMS_P2;Temp;Humidity;BMP_temperature;BMP_pressure;BME280_temperature;BME280_humidity;BME280_pressure;Samples;Min_cycle;Max_cycle;Signal;HPM_P1;HPM_P2
2021/01/20 03:47:42;;;;;;;2.00;1.00;;;4.20;78.00;;;;;;4893662;28;87681;-88
2021/01/20 03:50:08;;;;;;;1.38;1.13;;;4.30;76.20;;;;;;4919971;28;86866;-87
2021/01/20 03:52:34;;;;;;;0.80;0.80;;;4.20;78.40;;;;;;4940200;28;88227;-87
2021/01/20 03:55:00;;;;;;;1.20;1.08;;;4.10;79.50;;;;;;4924780;28;86923;-87
2021/01/20 03:57:25;;;;;;;0.80;0.80;;;4.00;79.40;;;;;;4918849;28;87093;-87
2021/01/20 03:59:51;;;;;;;1.00;1.00;;;4.00;78.50;;;;;;4922918;28;87182;-87
2021/01/20 04:02:17;;;;;;;1.42;1.10;;;4.00;79.30;;;;;;4937078;28;88564;-87
2021/01/20 04:04:42;;;;;;;1.15;1.00;;;3.90;81.70;;;;;;4925051;28;88119;-86
2021/01/20 04:07:10;;;;;;;1.00;0.90;;;3.70;83.90;;;;;;4925288;28;86721;-86
2021/01/20 04:09:35;;;;;;;1.30;1.20;;;3.50;84.20;;;;;;4925291;28;86851;-87
2021/01/20 04:12:01;;;;;;;1.48;1.17;;;3.40;84.70;;;;;;4922681;28;89234;-87
2021/01/20 04:14:27;;;;;;;1.17;1.02;;;3.40;86.00;;;;;;4912668;28;88437;-87
2021/01/20 04:16:54;;;;;;;2.28;1.48;;;3.20;87.70;;;;;;4924634;28;86702;-87
2021/01/20 04:19:21;;;;;;;1.05;0.90;;;3.00;90.10;;;;;;4908967;28;87994;-87
2021/01/20 04:21:49;;;;;;;0.93;0.93;;;2.90;90.30;;;;;;4925878;28;87027;-87
2021/01/20 04:24:16;;;;;;;1.08;1.00;;;2.90;90.50;;;;;;4924293;28;87382;-87
2021/01/20 04:26:43;;;;;;;1.17;1.08;;;2.80;90.80;;;;;;4924353;28;86820;-87
2021/01/20 04:29:09;;;;;;;1.33;1.33;;;2.80;91.00;;;;;;4924381;28;86098;-86
2021/01/20 04:31:38;;;;;;;1.13;0.85;;;3.00;88.60;;;;;;4923508;28;87026;-86
2021/01/20 04:34:05;;;;;;;0.77;0.77;;;3.10;87.90;;;;;;4924061;28;86969;-87
2021/01/20 04:36:31;;;;;;;2.58;2.38;;;3.30;85.60;;;;;;4914841;28;87653;-87
2021/01/20 04:38:56;;;;;;;6.90;4.70;;;3.30;93.10;;;;;;4915597;28;86830;-89
2021/01/20 04:41:22;;;;;;;6.68;5.28;;;3.20;99.90;;;;;;4923234;28;87715;-87
2021/01/20 04:43:49;;;;;;;8.82;6.07;;;3.20;99.90;;;;;;4924658;28;87245;-87
2021/01/20 04:46:15;;;;;;;6.13;5.18;;;;;;;;;;4912633;28;86883;-89
2021/01/20 04:48:43;;;;;;;2.78;2.50;;;2.90;99.90;;;;;;4906188;28;87085;-89
2021/01/20 04:51:09;;;;;;;4.93;3.63;;;;;;;;;;4929423;28;87290;-90
2021/01/20 04:53:39;;;;;;;4.43;3.38;;;2.80;99.90;;;;;;4916785;28;88185;-90
2021/01/20 04:56:09;;;;;;;5.97;4.30;;;2.70;99.90;;;;;;4906154;28;86995;-88
2021/01/20 04:58:35;;;;;;;6.80;5.13;;;2.70;99.90;;;;;;4905332;28;87336;-89
2021/01/20 05:01:02;;;;;;;10.77;7.50;;;;;;;;;;4905406;28;90107;-91
2021/01/20 05:03:28;;;;;;;10.63;8.52;;;;;;;;;;4915064;28;87636;-91
2021/01/20 05:05:55;;;;;;;8.98;6.72;;;2.50;99.90;;;;;;4906876;28;86830;-92
2021/01/20 05:08:21;;;;;;;10.02;7.15;;;2.50;99.90;;;;;;4907170;28;87120;-92
2021/01/20 05:10:48;;;;;;;11.07;7.22;;;2.40;99.90;;;;;;4923147;28;87807;-92
2021/01/20 05:13:25;;;;;;;11.77;7.85;;;2.30;99.90;;;;;;4890493;28;86966;-90
2021/01/20 05:15:51;;;;;;;10.27;7.55;;;2.30;99.90;;;;;;4914323;28;86899;-90
2021/01/20 05:18:17;;;;;;;14.60;8.27;;;2.30;99.90;;;;;;4917287;28;86470;-89
2021/01/20 05:20:43;;;;;;;11.90;7.85;;;2.20;99.90;;;;;;4923005;28;87757;-89
2021/01/20 05:23:10;;;;;;;10.52;7.45;;;2.10;99.90;;;;;;4932320;28;87244;-91
2021/01/20 05:25:38;;;;;;;11.25;7.78;;;2.00;99.90;;;;;;4922108;28;87632;-90
2021/01/20 05:28:17;;;;;;;4.70;3.65;;;1.90;99.90;;;;;;4909007;28;86828;-90
2021/01/20 05:30:59;;;;;;;2.50;1.95;;;1.90;99.90;;;;;;4907178;28;87992;-92
2021/01/20 05:33:38;;;;;;;1.83;1.35;;;2.20;99.90;;;;;;4906654;28;89383;-88
2021/01/20 05:36:04;;;;;;;0.70;0.70;;;2.20;99.90;;;;;;4907183;28;87094;-88
2021/01/20 05:38:43;;;;;;;2.67;0.98;;;2.40;96.50;;;;;;4926798;28;87590;-88
2021/01/20 05:41:15;;;;;;;1.45;1.13;;;2.70;94.00;;;;;;4908802;28;90356;-90
2021/01/20 05:43:41;;;;;;;2.88;2.67;;;;;;;;;;4926515;28;87349;-88
2021/01/20 05:46:09;;;;;;;1.55;1.45;;;2.80;93.00;;;;;;4904951;28;86603;-90
2021/01/20 05:48:48;;;;;;;7.97;5.30;;;2.80;95.40;;;;;;4906567;28;87112;-90
2021/01/20 05:51:14;;;;;;;9.00;5.53;;;2.70;99.90;;;;;;4903942;28;88939;-88
2021/01/20 05:53:51;;;;;;;7.88;4.32;;;2.60;99.90;;;;;;4907161;28;88439;-87
2021/01/20 05:56:24;;;;;;;10.00;6.70;;;2.40;99.90;;;;;;4907129;28;86922;-88
2021/01/20 05:58:50;;;;;;;3.20;1.83;;;2.40;99.90;;;;;;4902025;28;86448;-90
2021/01/20 06:01:17;;;;;;;4.45;3.67;;;2.40;99.90;;;;;;4906830;28;87943;-89
2021/01/20 06:03:46;;;;;;;2.63;1.83;;;2.40;98.50;;;;;;4905342;28;87823;-91
2021/01/20 06:06:13;;;;;;;1.50;1.40;;;;;;;;;;4906219;28;86894;-90
2021/01/20 06:08:40;;;;;;;8.20;5.93;;;;;;;;;;4905478;28;86185;-92
2021/01/20 06:11:06;;;;;;;9.05;5.80;;;;;;;;;;4903707;28;90126;-89
2021/01/20 06:13:33;;;;;;;12.43;8.60;;;2.60;99.90;;;;;;4900480;28;87337;-86
2021/01/20 06:16:05;;;;;;;4.13;3.55;;;2.40;99.90;;;;;;4903222;28;87675;-86
2021/01/20 06:18:37;;;;;;;1.13;1.05;;;2.40;99.90;;;;;;4905505;28;87093;-87
2021/01/20 06:21:02;;;;;;;;;;;2.90;93.20;;;;;;4928001;28;89462;-87
2021/01/20 06:23:32;;;;;;;2.97;1.17;;;3.10;90.30;;;;;;4914623;28;87459;-83
2021/01/20 06:26:13;;;;;;;1.08;1.08;;;3.40;90.50;;;;;;4903294;28;87005;-84
2021/01/20 06:28:45;;;;;;;1.13;0.93;;;3.40;87.00;;;;;;4905517;28;86928;-88
2021/01/20 06:31:11;;;;;;;1.40;1.05;;;3.50;85.00;;;;;;4909130;28;87520;-88
2021/01/20 06:33:38;;;;;;;2.80;2.60;;;;;;;;;;4907190;28;90578;-86
2021/01/20 06:36:04;;;;;;;4.93;2.70;;;;;;;;;;4917317;28;87571;-90
2021/01/20 06:38:35;;;;;;;0.90;0.90;;;3.50;81.50;;;;;;4900114;28;87765;-87
2021/01/20 06:41:29;;;;;;;;;;;3.70;81.80;;;;;;4899623;28;88637;-89
2021/01/20 06:44:08;;;;;;;1.13;1.10;;;3.70;81.50;;;;;;4901782;28;88216;-88
2021/01/20 06:46:34;;;;;;;1.50;1.20;;;3.60;85.30;;;;;;4912182;28;86927;-88
2021/01/20 06:48:59;;;;;;;8.90;5.80;;;3.60;83.70;;;;;;4934749;28;87597;-89
2021/01/20 06:51:29;;;;;;;9.98;6.85;;;3.50;95.80;;;;;;4922092;28;86953;-86
2021/01/20 06:54:06;;;;;;;10.57;6.97;;;3.20;99.90;;;;;;4918270;28;87875;-89
2021/01/20 06:56:48;;;;;;;11.45;7.05;;;3.00;99.90;;;;;;4919881;28;87208;-85
2021/01/20 06:59:14;;;;;;;10.48;7.22;;;2.90;99.90;;;;;;4920326;28;86370;-85
2021/01/20 07:01:40;;;;;;;9.70;7.03;;;2.70;99.90;;;;;;4925757;28;87190;-88
2021/01/20 07:04:06;;;;;;;9.90;6.72;;;2.50;99.90;;;;;;4924832;28;87456;-89
2021/01/20 07:06:34;;;;;;;11.68;7.70;;;2.40;99.90;;;;;;4929088;28;87161;-86
2021/01/20 07:09:14;;;;;;;10.40;7.53;;;2.20;99.90;;;;;;4906639;28;87219;-90
2021/01/20 07:12:02;;;;;;;11.50;7.65;;;2.20;99.90;;;;;;4903440;28;87235;-92
2021/01/20 07:14:29;;;;;;;11.55;7.22;;;2.10;99.90;;;;;;4922117;28;87356;-85
2021/01/20 07:16:56;;;;;;;13.50;9.10;;;;;;;;;;4925998;28;86934;-85
2021/01/20 07:19:32;;;;;;;10.75;7.88;;;2.10;99.90;;;;;;4924724;28;87104;-85
2021/01/20 07:21:58;;;;;;;12.48;7.72;;;2.10;99.90;;;;;;4911288;28;88789;-85
2021/01/20 07:24:25;;;;;;;12.00;7.88;;;2.10;99.90;;;;;;4927112;28;86310;-85
2021/01/20 07:26:50;;;;;;;13.45;8.05;;;2.20;99.90;;;;;;4929255;28;86935;-85
2021/01/20 07:29:18;;;;;;;13.35;8.27;;;2.30;99.90;;;;;;4930280;28;86760;-85
2021/01/20 07:31:49;;;;;;;11.77;9.48;;;2.40;99.90;;;;;;4929634;28;88789;-85
2021/01/20 07:34:16;;;;;;;12.27;9.82;;;2.80;99.90;;;;;;4913102;28;91172;-85
2021/01/20 07:36:42;;;;;;;12.75;9.25;;;;;;;;;;4929928;28;87020;-85
2021/01/20 07:39:25;;;;;;;12.18;7.90;;;2.60;99.90;;;;;;4929423;28;87002;-85
2021/01/20 07:41:57;;;;;;;15.07;8.80;;;2.80;99.90;;;;;;4940515;28;87460;-85
2021/01/20 07:44:27;;;;;;;14.85;9.95;;;2.80;99.90;;;;;;4929822;28;87139;-84
2021/01/20 07:47:08;;;;;;;18.15;11.23;;;3.30;99.90;;;;;;4919995;28;86351;-85
2021/01/20 07:49:34;;;;;;;15.10;8.32;;;2.80;99.90;;;;;;4909421;28;86431;-85
2021/01/20 07:52:04;;;;;;;15.75;8.50;;;2.90;99.90;;;;;;4912567;28;86800;-85
2021/01/20 07:54:35;;;;;;;12.13;8.55;;;2.90;99.90;;;;;;4906710;28;86831;-86
2021/01/20 07:57:01;;;;;;;13.10;8.70;;;2.90;99.90;;;;;;4932591;28;87974;-84
2021/01/20 07:59:27;;;;;;;16.33;9.30;;;2.90;99.90;;;;;;4925903;28;86873;-85
2021/01/20 08:02:04;;;;;;;17.85;9.32;;;2.80;99.90;;;;;;4922863;28;86824;-85
2021/01/20 08:04:30;;;;;;;17.70;9.82;;;2.80;99.90;;;;;;4929173;28;87035;-85
2021/01/20 08:06:56;;;;;;;17.70;10.32;;;2.80;99.90;;;;;;4923406;28;86328;-85
2021/01/20 08:09:33;;;;;;;17.38;9.30;;;2.90;99.90;;;;;;4921661;28;86252;-85
2021/01/20 08:11:59;;;;;;;13.70;8.18;;;3.10;99.90;;;;;;4917243;28;87501;-85
2021/01/20 08:14:24;;;;;;;19.30;9.93;;;3.40;99.90;;;;;;4912344;28;86215;-84
2021/01/20 08:16:51;;;;;;;22.65;9.95;;;3.70;99.90;;;;;;4901623;28;86972;-85
2021/01/20 08:19:18;;;;;;;14.85;8.18;;;3.90;99.90;;;;;;4906124;28;86868;-85
2021/01/20 08:21:45;;;;;;;13.02;7.18;;;4.00;99.90;;;;;;4898410;28;89145;-85
2021/01/20 08:24:11;;;;;;;7.78;5.20;;;4.10;99.90;;;;;;4906209;28;88936;-85
2021/01/20 08:26:38;;;;;;;10.25;6.60;;;4.00;99.90;;;;;;4904085;28;86947;-85
2021/01/20 08:29:12;;;;;;;10.93;5.57;;;4.10;99.90;;;;;;4908458;28;86759;-83
2021/01/20 08:31:39;;;;;;;7.22;5.00;;;4.10;99.70;;;;;;4930540;28;87251;-85
2021/01/20 08:34:15;;;;;;;7.10;5.75;;;4.20;98.20;;;;;;4926480;28;86735;-85
2021/01/20 08:37:01;;;;;;;7.60;5.43;;;4.20;97.80;;;;;;4926929;28;86552;-84
2021/01/20 08:39:28;;;;;;;6.78;5.60;;;4.40;96.70;;;;;;4933004;28;85929;-85
2021/01/20 08:42:16;;;;;;;11.05;6.45;;;4.60;95.00;;;;;;4911125;28;87516;-87
2021/01/20 08:45:10;;;;;;;7.15;5.82;;;4.50;93.40;;;;;;4912576;28;87433;-85
2021/01/20 08:47:55;;;;;;;6.85;3.83;;;4.70;92.70;;;;;;4945950;28;87126;-85
2021/01/20 08:50:26;;;;;;;7.13;4.43;;;5.00;92.20;;;;;;4946568;28;86185;-85
2021/01/20 08:52:55;;;;;;;7.10;4.78;;;5.00;91.40;;;;;;4931374;28;87266;-86
2021/01/20 08:55:29;;;;;;;6.90;3.30;;;5.50;91.20;;;;;;4931728;28;87470;-86
2021/01/20 08:58:33;;;;;;;5.68;4.93;;;6.30;89.20;;;;;;4912525;28;86958;-86
2021/01/20 09:01:22;;;;;;;6.00;5.03;;;6.90;84.20;;;;;;4889964;28;87266;-86
2021/01/20 09:04:13;;;;;;;10.88;3.88;;;7.30;81.10;;;;;;4920566;28;87003;-85
2021/01/20 09:06:39;;;;;;;4.80;4.32;;;7.60;77.60;;;;;;4917150;28;87352;-86
2021/01/20 09:09:06;;;;;;;4.85;4.32;;;7.50;76.40;;;;;;4928119;28;87112;-85
2021/01/20 09:11:38;;;;;;;7.32;5.18;;;7.50;75.20;;;;;;4928273;28;87209;-85
2021/01/20 09:14:04;;;;;;;5.85;3.78;;;7.50;75.20;;;;;;4925554;28;89218;-85
2021/01/20 09:16:30;;;;;;;6.22;4.40;;;7.40;74.70;;;;;;4926466;28;87316;-85
2021/01/20 09:18:57;;;;;;;5.57;4.38;;;7.30;72.10;;;;;;4926794;28;87124;-85
2021/01/20 09:21:23;;;;;;;8.30;4.93;;;7.30;74.80;;;;;;4928074;28;87126;-85
2021/01/20 09:23:50;;;;;;;7.82;5.80;;;7.50;75.10;;;;;;4923447;28;87390;-86
2021/01/20 09:26:16;;;;;;;8.80;6.70;;;7.70;73.90;;;;;;4929005;28;86933;-86
2021/01/20 09:28:42;;;;;;;9.57;7.82;;;7.80;74.60;;;;;;4927889;28;87878;-86
2021/01/20 09:31:08;;;;;;;8.68;7.55;;;7.90;74.50;;;;;;4926647;28;86198;-87
2021/01/20 09:33:33;;;;;;;12.00;8.55;;;8.10;73.00;;;;;;4927272;28;87092;-87
2021/01/20 09:36:01;;;;;;;9.82;7.80;;;8.30;74.60;;;;;;4917849;28;89334;-86
2021/01/20 09:38:27;;;;;;;12.52;8.48;;;8.50;74.00;;;;;;4926620;28;87811;-86
2021/01/20 09:40:52;;;;;;;12.65;8.18;;;8.60;73.50;;;;;;4937434;28;86532;-86
2021/01/20 09:43:21;;;;;;;11.63;8.02;;;8.80;74.20;;;;;;4932065;28;90325;-86
2021/01/20 09:45:47;;;;;;;15.98;9.63;;;9.00;74.00;;;;;;4928709;28;89671;-86
2021/01/20 09:48:15;;;;;;;13.38;9.50;;;9.10;72.70;;;;;;4917089;28;86635;-86
2021/01/20 09:50:43;;;;;;;11.52;8.25;;;9.10;73.60;;;;;;4919162;28;86598;-86
2021/01/20 09:53:09;;;;;;;10.65;7.95;;;8.80;73.30;;;;;;4915383;28;86938;-86
2021/01/20 09:55:35;;;;;;;10.77;8.15;;;8.90;74.40;;;;;;4916581;28;87638;-87
2021/01/20 09:58:03;;;;;;;11.55;9.07;;;9.10;74.30;;;;;;4908725;28;87043;-87
2021/01/20 10:00:29;;;;;;;10.95;8.60;;;9.30;74.60;;;;;;4906579;28;86727;-86
2021/01/20 10:02:55;;;;;;;10.80;8.70;;;9.40;73.90;;;;;;4908956;28;88593;-86
2021/01/20 10:05:21;;;;;;;11.68;8.88;;;9.60;74.20;;;;;;4900560;28;87905;-86
2021/01/20 10:07:46;;;;;;;11.55;8.68;;;9.60;74.50;;;;;;4906131;28;86938;-86
2021/01/20 10:10:13;;;;;;;12.30;10.05;;;9.80;74.30;;;;;;4897383;28;87538;-85
2021/01/20 10:12:39;;;;;;;10.82;8.50;;;9.70;74.40;;;;;;4897536;28;88881;-87
2021/01/20 10:15:06;;;;;;;10.63;8.60;;;9.80;74.60;;;;;;4899925;28;88953;-89
2021/01/20 10:17:32;;;;;;;13.77;9.27;;;9.80;74.00;;;;;;4911281;28;87356;-89
2021/01/20 10:19:58;;;;;;;10.45;8.35;;;9.90;74.00;;;;;;4908498;28;86519;-88
2021/01/20 10:22:24;;;;;;;10.27;8.63;;;10.00;73.80;;;;;;4888617;28;88125;-84
2021/01/20 10:24:52;;;;;;;9.73;8.82;;;10.10;73.30;;;;;;4908181;28;87360;-88
2021/01/20 10:27:18;;;;;;;10.20;8.30;;;10.20;72.80;;;;;;4891618;28;87546;-86
2021/01/20 10:29:44;;;;;;;9.40;7.82;;;10.40;72.40;;;;;;4916489;28;87058;-86
2021/01/20 10:32:09;;;;;;;7.00;6.30;;;10.50;71.80;;;;;;4902943;28;87569;-87
2021/01/20 10:34:35;;;;;;;7.78;6.57;;;10.60;70.90;;;;;;4916465;28;87365;-88
2021/01/20 10:37:03;;;;;;;7.38;6.68;;;10.70;70.50;;;;;;4906705;28;86883;-88
2021/01/20 10:39:29;;;;;;;8.60;6.45;;;10.90;68.90;;;;;;4905669;28;86369;-88
2021/01/20 10:41:55;;;;;;;9.20;7.25;;;10.90;68.40;;;;;;4903612;28;87091;-86
2021/01/20 10:44:21;;;;;;;8.10;7.30;;;11.00;68.40;;;;;;4915531;28;89029;-87
2021/01/20 10:46:47;;;;;;;8.93;7.57;;;11.00;67.90;;;;;;4917923;28;86992;-88
2021/01/20 10:49:14;;;;;;;8.90;6.95;;;10.90;66.90;;;;;;4925387;28;86997;-87
2021/01/20 10:51:39;;;;;;;7.72;6.93;;;10.90;67.10;;;;;;4923826;28;87577;-86
2021/01/20 10:54:06;;;;;;;7.50;6.70;;;10.70;67.20;;;;;;4924470;28;89018;-85
2021/01/20 10:56:32;;;;;;;8.13;7.10;;;10.70;67.90;;;;;;4925703;28;87104;-85
2021/01/20 10:58:58;;;;;;;9.02;7.03;;;10.70;68.00;;;;;;4924210;28;86784;-85
2021/01/20 11:01:24;;;;;;;7.50;6.63;;;10.70;68.10;;;;;;4925076;28;87079;-85
2021/01/20 11:03:49;;;;;;;8.13;7.32;;;10.70;67.60;;;;;;4924899;28;88151;-85
2021/01/20 11:06:16;;;;;;;12.50;9.25;;;10.70;68.60;;;;;;4929572;28;86893;-86
2021/01/20 11:08:41;;;;;;;11.40;7.55;;;10.60;68.90;;;;;;4933058;28;86317;-86
2021/01/20 11:11:10;;;;;;;9.60;7.18;;;10.60;68.80;;;;;;4926728;28;89155;-83
2021/01/20 11:13:35;;;;;;;11.48;7.65;;;10.70;68.80;;;;;;4925103;28;87731;-83
2021/01/20 11:16:02;;;;;;;11.40;8.52;;;;;;;;;;4925946;28;87804;-82
2021/01/20 11:18:31;;;;;;;9.45;7.90;;;10.50;69.60;;;;;;4927317;28;87309;-82
2021/01/20 11:20:57;;;;;;;9.27;6.95;;;10.50;70.40;;;;;;4922712;28;88217;-83
2021/01/20 11:23:26;;;;;;;10.07;7.15;;;10.50;70.60;;;;;;4925175;28;87060;-83
2021/01/20 11:25:53;;;;;;;8.27;7.47;;;10.40;71.20;;;;;;4930551;28;86951;-83
2021/01/20 11:28:19;;;;;;;8.70;6.82;;;10.50;71.00;;;;;;4926921;28;86966;-85
2021/01/20 11:30:45;;;;;;;8.30;7.22;;;10.50;70.30;;;;;;4926228;28;88218;-83
2021/01/20 11:33:11;;;;;;;10.15;7.72;;;10.40;70.80;;;;;;4926637;28;87731;-83
2021/01/20 11:35:37;;;;;;;7.90;7.18;;;10.20;70.70;;;;;;4937277;28;86946;-83
2021/01/20 11:38:04;;;;;;;9.30;7.30;;;10.10;71.70;;;;;;4927318;28;86941;-83
2021/01/20 11:40:31;;;;;;;7.82;7.05;;;10.30;71.60;;;;;;4922823;28;87944;-82
2021/01/20 11:42:58;;;;;;;10.32;7.65;;;10.40;70.60;;;;;;4919121;28;89009;-83
2021/01/20 11:45:28;;;;;;;8.80;7.88;;;10.00;70.00;;;;;;4921661;28;87038;-82
2021/01/20 11:47:55;;;;;;;9.63;8.07;;;9.90;71.40;;;;;;4922229;28;86448;-83
2021/01/20 11:50:21;;;;;;;9.15;7.50;;;9.90;72.10;;;;;;4926386;28;86605;-82
2021/01/20 11:52:48;;;;;;;7.50;6.32;;;9.90;72.20;;;;;;4924187;28;86992;-82
2021/01/20 11:55:14;;;;;;;8.35;6.95;;;9.90;72.10;;;;;;4927008;28;86227;-83
2021/01/20 11:57:40;;;;;;;8.73;7.93;;;9.70;72.70;;;;;;4929375;28;87320;-82
2021/01/20 12:00:08;;;;;;;11.05;7.72;;;9.80;73.10;;;;;;4926671;28;86936;-82
2021/01/20 12:02:33;;;;;;;8.65;7.75;;;9.40;75.20;;;;;;4908146;28;88866;-82
2021/01/20 12:04:59;;;;;;;9.07;5.75;;;9.00;77.30;;;;;;4925089;28;87486;-83
2021/01/20 12:07:25;;;;;;;9.20;7.22;;;8.30;76.50;;;;;;4925585;28;87111;-82
2021/01/20 12:09:50;;;;;;;10.50;7.93;;;8.60;76.80;;;;;;4929494;28;87210;-82
2021/01/20 12:12:16;;;;;;;8.50;7.55;;;8.70;77.30;;;;;;4923688;28;86995;-82
2021/01/20 12:14:42;;;;;;;7.93;7.13;;;8.80;78.40;;;;;;4923899;28;86900;-83
2021/01/20 12:17:08;;;;;;;8.05;7.25;;;8.70;79.00;;;;;;4922973;28;86825;-82
2021/01/20 12:19:34;;;;;;;7.85;7.10;;;8.90;78.40;;;;;;4927573;28;88011;-82
2021/01/20 12:21:59;;;;;;;8.95;7.47;;;8.90;79.00;;;;;;4922920;28;87900;-84
2021/01/20 12:24:25;;;;;;;8.23;6.22;;;8.50;74.80;;;;;;4924021;28;86993;-85
2021/01/20 12:26:53;;;;;;;9.50;7.82;;;8.00;79.60;;;;;;4932365;28;86457;-84
2021/01/20 12:29:19;;;;;;;5.53;5.00;;;7.80;80.70;;;;;;4925274;28;88118;-85
2021/01/20 12:31:44;;;;;;;2.85;2.65;;;8.10;74.30;;;;;;4933808;28;87175;-84
2021/01/20 12:34:10;;;;;;;2.63;2.47;;;8.30;61.60;;;;;;4938262;28;86718;-84
2021/01/20 12:36:36;;;;;;;1.27;1.17;;;8.70;60.00;;;;;;4935591;28;86954;-84
2021/01/20 12:39:02;;;;;;;3.35;2.60;;;9.10;56.60;;;;;;4930613;28;88228;-83
2021/01/20 12:41:28;;;;;;;3.03;2.22;;;9.50;54.20;;;;;;4914538;28;88596;-84
2021/01/20 12:43:54;;;;;;;2.17;1.98;;;9.70;54.10;;;;;;4933613;28;87312;-84
2021/01/20 12:46:20;;;;;;;6.53;5.85;;;10.00;66.30;;;;;;4929842;28;86392;-84
2021/01/20 12:48:45;;;;;;;5.80;4.65;;;10.00;66.80;;;;;;4937838;28;88093;-83
2021/01/20 12:51:11;;;;;;;5.63;4.68;;;9.90;68.50;;;;;;4930276;28;87170;-84
2021/01/20 12:53:36;;;;;;;6.65;6.05;;;9.90;70.30;;;;;;4914182;28;88045;-84
2021/01/20 12:56:02;;;;;;;6.05;5.45;;;9.80;71.40;;;;;;4928759;28;87097;-84
2021/01/20 12:58:28;;;;;;;6.25;5.65;;;9.50;72.70;;;;;;4929404;28;87666;-84
2021/01/20 13:00:53;;;;;;;6.47;5.88;;;9.40;72.80;;;;;;4928180;28;87030;-83
2021/01/20 13:03:19;;;;;;;6.50;5.90;;;9.50;73.30;;;;;;4928027;28;87030;-84
2021/01/20 13:05:45;;;;;;;6.13;4.50;;;9.40;74.20;;;;;;4929105;28;86902;-84
2021/01/20 13:08:10;;;;;;;6.45;5.85;;;9.60;73.60;;;;;;4930214;28;86846;-84
2021/01/20 13:10:36;;;;;;;6.68;6.05;;;9.70;73.80;;;;;;4933881;28;86719;-84
2021/01/20 13:13:02;;;;;;;6.70;4.53;;;9.90;73.10;;;;;;4931627;28;86918;-84
2021/01/20 13:15:28;;;;;;;9.13;6.53;;;10.10;72.80;;;;;;4935747;28;88555;-84
2021/01/20 13:17:55;;;;;;;6.80;6.10;;;10.30;72.40;;;;;;4927533;28;88132;-84
2021/01/20 13:20:21;;;;;;;6.78;6.13;;;10.60;71.80;;;;;;4929628;28;87347;-84
2021/01/20 13:22:47;;;;;;;6.88;6.20;;;10.80;70.80;;;;;;4926062;28;87157;-84
2021/01/20 13:25:16;;;;;;;7.32;6.57;;;11.00;68.80;;;;;;4927623;28;86964;-84
2021/01/20 13:27:42;;;;;;;7.40;6.22;;;10.90;69.00;;;;;;4926344;28;87722;-84
2021/01/20 13:30:08;;;;;;;6.57;4.85;;;11.20;68.60;;;;;;4927397;28;87009;-84
2021/01/20 13:32:34;;;;;;;7.43;6.32;;;11.30;67.60;;;;;;4909579;28;86851;-84
2021/01/20 13:35:00;;;;;;;6.72;6.03;;;11.40;67.50;;;;;;4929296;28;86303;-84
2021/01/20 13:37:26;;;;;;;6.50;5.65;;;11.50;67.20;;;;;;4929190;28;87213;-84
2021/01/20 13:39:52;;;;;;;7.10;6.40;;;11.50;66.60;;;;;;4922945;28;86975;-84
2021/01/20 13:42:17;;;;;;;7.38;6.68;;;11.40;66.40;;;;;;4931232;28;88073;-84
2021/01/20 13:44:43;;;;;;;7.05;6.35;;;11.40;66.70;;;;;;4941063;28;87028;-84
2021/01/20 13:47:09;;;;;;;8.20;7.40;;;11.30;66.30;;;;;;4925109;28;87295;-84
2021/01/20 13:49:35;;;;;;;7.07;6.38;;;11.20;67.80;;;;;;4934362;28;87243;-84
2021/01/20 13:52:01;;;;;;;7.00;6.30;;;11.70;66.90;;;;;;4938367;28;87039;-84
2021/01/20 13:54:27;;;;;;;6.32;5.82;;;12.10;65.70;;;;;;4934659;28;87088;-85
2021/01/20 13:56:53;;;;;;;5.95;5.35;;;12.40;64.70;;;;;;4932514;28;88002;-82
2021/01/20 13:59:19;;;;;;;6.75;5.53;;;12.60;64.10;;;;;;4927686;28;86581;-83
2021/01/20 14:01:45;;;;;;;7.32;6.63;;;12.70;63.20;;;;;;4928182;28;86890;-82
2021/01/20 14:04:10;;;;;;;7.65;6.90;;;12.60;62.30;;;;;;4928786;28;87305;-83
2021/01/20 14:06:37;;;;;;;6.85;6.25;;;12.60;62.50;;;;;;4926684;28;88198;-83
2021/01/20 14:09:07;;;;;;;7.60;6.53;;;12.40;62.60;;;;;;4927423;28;87262;-83
2021/01/20 14:11:33;;;;;;;5.85;4.78;;;12.40;62.30;;;;;;4929005;28;87160;-83
2021/01/20 14:13:58;;;;;;;9.18;7.13;;;12.40;61.70;;;;;;4928701;28;86840;-82
2021/01/20 14:16:24;;;;;;;7.88;7.07;;;12.20;61.60;;;;;;4930364;28;87090;-82
2021/01/20 14:18:50;;;;;;;6.80;6.07;;;12.20;61.60;;;;;;4928208;28;86897;-83
2021/01/20 14:21:15;;;;;;;6.97;6.10;;;12.00;61.70;;;;;;4921481;28;87589;-84
2021/01/20 14:23:41;;;;;;;8.88;6.60;;;12.00;62.00;;;;;;4930786;28;86259;-85
2021/01/20 14:26:07;;;;;;;8.93;7.18;;;11.90;61.90;;;;;;4929648;28;87603;-84
2021/01/20 14:28:33;;;;;;;9.50;7.40;;;11.90;62.30;;;;;;4945280;28;86874;-83
2021/01/20 14:30:59;;;;;;;8.38;7.00;;;11.90;62.30;;;;;;4947098;28;87036;-84
2021/01/20 14:33:25;;;;;;;7.93;6.57;;;11.80;62.60;;;;;;4947201;28;86469;-84
2021/01/20 14:35:51;;;;;;;8.35;6.80;;;11.80;62.10;;;;;;4947106;28;87267;-84
2021/01/20 14:38:17;;;;;;;6.85;5.90;;;11.80;62.00;;;;;;4932309;28;86997;-82
2021/01/20 14:40:42;;;;;;;8.93;6.65;;;11.80;61.40;;;;;;4930667;28;86923;-81
2021/01/20 14:43:08;;;;;;;8.00;6.03;;;11.70;61.60;;;;;;4949948;28;86188;-82
2021/01/20 14:45:34;;;;;;;5.93;5.10;;;11.60;61.40;;;;;;4941144;28;86657;-83
2021/01/20 14:47:59;;;;;;;7.97;7.28;;;11.50;61.70;;;;;;4943945;28;86424;-82
2021/01/20 14:50:25;;;;;;;7.03;6.32;;;11.40;61.80;;;;;;4932438;28;86516;-83
2021/01/20 14:52:51;;;;;;;7.20;6.50;;;11.10;61.90;;;;;;4927636;28;86961;-83
2021/01/20 14:55:17;;;;;;;7.15;6.00;;;11.00;62.70;;;;;;4931905;28;89091;-85
2021/01/20 14:57:43;;;;;;;8.57;6.55;;;10.70;63.00;;;;;;4934183;28;88840;-85
2021/01/20 15:00:10;;;;;;;7.57;6.78;;;10.70;63.90;;;;;;4931330;28;86659;-85
2021/01/20 15:02:35;;;;;;;6.78;6.07;;;10.60;64.20;;;;;;4938604;28;87032;-84
2021/01/20 15:05:01;;;;;;;7.47;6.80;;;10.50;64.40;;;;;;4928740;28;88220;-85
2021/01/20 15:07:27;;;;;;;7.88;6.80;;;10.40;64.70;;;;;;4928911;28;86887;-84
2021/01/20 15:09:52;;;;;;;8.52;7.50;;;10.20;65.10;;;;;;4931982;28;87243;-85
2021/01/20 15:12:18;;;;;;;8.35;7.45;;;10.00;66.00;;;;;;4931161;28;86182;-85
2021/01/20 15:14:44;;;;;;;8.13;6.72;;;9.70;66.80;;;;;;4925284;28;86907;-84
2021/01/20 15:17:10;;;;;;;7.82;6.78;;;9.40;67.70;;;;;;4934897;28;87578;-84
2021/01/20 15:19:37;;;;;;;7.88;7.07;;;9.20;68.80;;;;;;4924827;28;87786;-85
2021/01/20 15:22:03;;;;;;;7.30;6.55;;;8.90;70.20;;;;;;4931843;28;86861;-85
2021/01/20 15:24:28;;;;;;;8.52;6.95;;;8.70;70.90;;;;;;4933085;28;88165;-85
2021/01/20 15:26:54;;;;;;;8.60;6.80;;;8.40;71.80;;;;;;4931653;28;86690;-84
2021/01/20 15:29:20;;;;;;;12.32;8.88;;;8.20;72.40;;;;;;4921525;28;87031;-85
2021/01/20 15:31:46;;;;;;;11.93;7.82;;;7.90;73.30;;;;;;4928593;28;86924;-83
2021/01/20 15:34:12;;;;;;;13.07;10.23;;;7.70;74.20;;;;;;4921910;28;87498;-81
2021/01/20 15:36:38;;;;;;;10.90;9.40;;;7.40;74.80;;;;;;4921059;28;86862;-81
2021/01/20 15:39:07;;;;;;;10.45;8.15;;;7.20;75.70;;;;;;4924094;28;86926;-81
2021/01/20 15:41:33;;;;;;;9.38;7.35;;;7.00;78.80;;;;;;4921290;28;87153;-80
2021/01/20 15:43:59;;;;;;;10.93;7.97;;;6.80;79.10;;;;;;4924796;28;88022;-81
2021/01/20 15:46:25;;;;;;;8.10;7.22;;;6.60;80.60;;;;;;4925758;28;87165;-81
2021/01/20 19:32:47;;;;;;;;;;;9.80;48.50;;;;;;4893599;28;88463;-82
2021/01/20 19:35:13;;;;;;;1.35;1.25;;;9.90;48.40;;;;;;4882862;28;86367;-82
2021/01/20 19:37:38;;;;;;;1.08;1.02;;;9.90;48.00;;;;;;4889326;28;87097;-82
2021/01/20 19:40:05;;;;;;;0.80;0.80;;;9.80;48.60;;;;;;4897904;28;86375;-82
2021/01/20 19:42:31;;;;;;;1.10;1.10;;;9.80;48.20;;;;;;4889494;28;88269;-83
2021/01/20 19:44:57;;;;;;;1.00;0.88;;;9.90;48.30;;;;;;4893548;28;87192;-82
2021/01/20 19:47:24;;;;;;;1.00;1.00;;;9.80;48.60;;;;;;4890941;28;87874;-82
2021/01/20 19:49:49;;;;;;;1.30;1.17;;;9.90;47.80;;;;;;4889898;28;87143;-82
2021/01/20 19:52:15;;;;;;;1.80;1.13;;;9.90;47.90;;;;;;4895801;28;87819;-82
2021/01/20 19:54:42;;;;;;;0.88;0.88;;;9.80;48.40;;;;;;4890094;28;86988;-83
2021/01/20 19:57:08;;;;;;;1.00;1.00;;;9.90;47.70;;;;;;4892290;28;86931;-82
2021/01/20 19:59:33;;;;;;;0.80;0.80;;;9.80;48.30;;;;;;4890385;28;87106;-82
2021/01/20 20:01:59;;;;;;;1.10;1.10;;;9.90;48.30;;;;;;4895453;28;87608;-83
2021/01/20 20:04:25;;;;;;;1.10;1.10;;;9.90;48.10;;;;;;4886068;28;86954;-82
2021/01/20 20:06:51;;;;;;;1.00;1.00;;;9.90;48.10;;;;;;4889390;28;87175;-82
2021/01/20 20:09:17;;;;;;;0.85;0.80;;;9.90;48.40;;;;;;4889106;28;87268;-81
2021/01/20 20:11:43;;;;;;;0.77;0.77;;;9.90;47.60;;;;;;4887594;28;88169;-82
2021/01/20 20:14:09;;;;;;;0.70;0.70;;;9.90;49.10;;;;;;4887960;28;88446;-82
2021/01/20 20:16:34;;;;;;;0.85;0.80;;;9.90;48.00;;;;;;4889595;28;87005;-82
2021/01/20 20:19:00;;;;;;;1.95;1.10;;;9.80;48.70;;;;;;4896499;28;86377;-81
2021/01/20 20:21:26;;;;;;;0.98;0.98;;;9.80;48.40;;;;;;4904931;28;87186;-81
2021/01/20 20:23:51;;;;;;;0.88;0.88;;;9.80;48.60;;;;;;4904924;28;86698;-82
2021/01/20 20:26:17;;;;;;;1.30;1.30;;;9.70;49.40;;;;;;4904911;28;86872;-81
2021/01/20 20:28:44;;;;;;;0.70;0.70;;;9.70;48.90;;;;;;4897204;28;85797;-82